createdAt,value
2023-05-24T00:02:04.013Z,68.50
2023-05-24T00:04:35.858Z,69.91
2023-05-24T00:07:05.320Z,72.15
2023-05-24T00:09:36.648Z,82.05
2023-05-24T00:12:07.358Z,76.24
2023-05-24T00:14:36.361Z,78.87
2023-05-24T00:17:05.822Z,73.28
2023-05-24T00:19:38.602Z,80.53
2023-05-24T00:22:07.749Z,75.67
2023-05-24T00:24:38.605Z,68.67
2023-05-24T00:27:09.895Z,73.33
2023-05-24T00:29:39.025Z,68.05
2023-05-24T00:32:10.834Z,72.91
2023-05-24T00:34:43.067Z,76.22
2023-05-24T00:37:12.426Z,76.07
2023-05-24T00:39:42.551Z,75.28
2023-05-24T00:42:15.547Z,73.39
2023-05-24T00:44:44.561Z,69.32
2023-05-24T00:47:13.608Z,70.96
2023-05-24T00:49:44.511Z,66.73
2023-05-24T00:52:14.702Z,65.00
2023-05-24T00:54:44.520Z,65.22
2023-05-24T00:57:15.242Z,64.55
2023-05-24T00:59:44.611Z,64.10
2023-05-24T01:02:14.453Z,65.24
2023-05-24T01:04:45.473Z,64.70
2023-05-24T01:07:23.885Z,63.87
2023-05-24T01:10:04.880Z,63.62
2023-05-24T01:12:47.889Z,63.84
2023-05-24T01:15:24.819Z,63.98
2023-05-24T01:18:02.371Z,64.08
2023-05-24T01:20:39.111Z,63.67
2023-05-24T01:23:29.725Z,64.16
2023-05-24T01:26:22.924Z,64.19
2023-05-24T01:28:54.800Z,64.21
2023-05-24T01:31:26.289Z,64.29
2023-05-24T01:33:55.522Z,64.20
2023-05-24T01:36:24.966Z,64.39
2023-05-24T01:38:54.903Z,64.42
2023-05-24T01:41:35.960Z,64.51
2023-05-24T01:44:15.590Z,64.58
2023-05-24T01:46:49.650Z,64.80
2023-05-24T01:49:24.761Z,64.82
2023-05-24T01:52:02.066Z,64.87
2023-05-24T01:54:34.986Z,64.88
2023-05-24T01:57:12.677Z,65.18
2023-05-24T01:59:45.891Z,65.07
2023-05-24T02:02:15.221Z,65.17
2023-05-24T02:04:45.946Z,65.37
2023-05-24T02:07:14.977Z,65.30
2023-05-24T02:09:44.361Z,65.56
2023-05-24T02:12:14.465Z,65.75
2023-05-24T02:14:44.974Z,65.71
2023-05-24T02:17:18.427Z,65.73
2023-05-24T02:19:47.708Z,65.84
2023-05-24T02:22:18.314Z,65.99
2023-05-24T02:24:48.743Z,66.05
2023-05-24T02:27:20.422Z,66.17
2023-05-24T02:29:51.009Z,66.45
2023-05-24T02:32:20.480Z,66.46
2023-05-24T02:34:49.436Z,66.46
2023-05-24T02:37:18.450Z,66.44
2023-05-24T02:39:50.154Z,66.48
2023-05-24T02:42:19.420Z,66.26
2023-05-24T02:44:53.013Z,66.44
2023-05-24T02:47:22.751Z,66.41
2023-05-24T02:49:53.386Z,66.30
2023-05-24T02:52:23.418Z,66.57
2023-05-24T02:55:00.128Z,66.33
2023-05-24T02:57:29.540Z,66.62
2023-05-24T03:00:00.708Z,66.37
2023-05-24T03:02:29.967Z,66.51
2023-05-24T03:05:00.001Z,66.67
2023-05-24T03:07:30.576Z,66.86
2023-05-24T03:10:01.027Z,66.85
2023-05-24T03:12:30.465Z,67.03
2023-05-24T03:15:01.969Z,66.69
2023-05-24T03:17:34.558Z,67.04
2023-05-24T03:20:05.924Z,66.89
2023-05-24T03:22:34.738Z,66.56
2023-05-24T03:25:03.780Z,67.08
2023-05-24T03:27:33.194Z,67.19
2023-05-24T03:30:04.406Z,67.27
2023-05-24T03:32:33.491Z,67.39
2023-05-24T03:35:03.110Z,67.39
2023-05-24T03:37:32.090Z,67.02
2023-05-24T03:40:04.587Z,67.32
2023-05-24T03:42:33.626Z,67.46
2023-05-24T03:45:03.901Z,67.84
2023-05-24T03:47:35.077Z,68.02
2023-05-24T03:50:04.493Z,67.79
2023-05-24T03:52:33.466Z,67.80
2023-05-24T03:55:02.278Z,67.98
2023-05-24T03:57:31.263Z,68.04
2023-05-24T04:00:00.619Z,67.65
2023-05-24T04:02:31.383Z,68.04
2023-05-24T04:05:02.456Z,68.46
2023-05-24T04:07:34.614Z,68.40
2023-05-24T04:10:03.840Z,67.91
2023-05-24T04:12:33.549Z,67.24
2023-05-24T04:15:04.293Z,67.17
2023-05-24T04:17:35.650Z,66.94
2023-05-24T04:20:06.318Z,67.49
2023-05-24T04:22:36.122Z,68.29
2023-05-24T04:25:05.471Z,67.78
2023-05-24T04:27:36.558Z,67.30
2023-05-24T04:30:06.376Z,67.14
2023-05-24T04:32:37.356Z,66.74
2023-05-24T04:35:08.358Z,66.38
2023-05-24T04:37:37.833Z,66.77
2023-05-24T04:40:08.209Z,66.62
2023-05-24T04:42:39.778Z,66.26
2023-05-24T04:45:10.016Z,66.26
2023-05-24T04:47:41.873Z,66.17
2023-05-24T04:50:12.996Z,66.56
2023-05-24T04:52:41.745Z,68.18
2023-05-24T04:55:11.543Z,72.18
2023-05-24T04:57:40.431Z,70.62
2023-05-24T05:00:11.747Z,68.91
2023-05-24T05:02:42.025Z,67.88
2023-05-24T05:05:11.540Z,66.50
2023-05-24T05:07:43.496Z,70.92
2023-05-24T05:10:12.926Z,69.59
2023-05-24T05:12:42.870Z,68.69
2023-05-24T05:15:13.043Z,69.52
2023-05-24T05:17:45.703Z,68.68
2023-05-24T05:20:14.592Z,68.22
2023-05-24T05:22:53.167Z,68.88
2023-05-24T05:25:23.080Z,69.80
2023-05-24T05:28:02.029Z,69.07
2023-05-24T05:30:31.087Z,70.35
2023-05-24T05:33:06.420Z,71.01
2023-05-24T05:35:35.700Z,72.25
2023-05-24T05:38:06.146Z,72.94
2023-05-24T05:40:35.032Z,77.89
2023-05-24T05:43:04.653Z,76.28
2023-05-24T05:45:33.534Z,71.92
2023-05-24T05:48:04.842Z,73.81
2023-05-24T05:50:34.002Z,70.95
2023-05-24T05:53:02.760Z,72.17
2023-05-24T05:55:32.254Z,76.10
2023-05-24T05:58:02.565Z,77.99
2023-05-24T06:00:34.483Z,76.66
2023-05-24T06:03:05.317Z,72.57
2023-05-24T06:05:34.328Z,72.18
2023-05-24T06:08:03.529Z,75.37
2023-05-24T06:10:32.773Z,71.78
2023-05-24T06:13:05.061Z,68.91
2023-05-24T06:15:36.620Z,70.20
2023-05-24T06:18:07.734Z,72.79
2023-05-24T06:20:37.368Z,70.39
2023-05-24T06:23:07.565Z,78.53
2023-05-24T06:25:38.800Z,79.65
2023-05-24T06:28:09.285Z,76.71
2023-05-24T06:30:38.859Z,75.31
2023-05-24T06:33:09.953Z,75.00
2023-05-24T06:35:39.439Z,71.40
2023-05-24T06:38:09.103Z,70.41
2023-05-24T06:40:38.190Z,74.13
2023-05-24T06:43:07.738Z,70.96
2023-05-24T06:45:37.601Z,70.15
2023-05-24T06:48:07.593Z,71.36
2023-05-24T06:50:41.626Z,81.51
2023-05-24T06:53:11.876Z,74.86
2023-05-24T06:55:40.864Z,78.68
2023-05-24T06:58:14.577Z,80.69
2023-05-24T07:00:43.725Z,76.33
2023-05-24T07:03:15.568Z,76.81
2023-05-24T07:05:46.402Z,78.84
2023-05-24T07:08:15.336Z,78.41
2023-05-24T07:10:45.203Z,82.75
2023-05-24T07:13:14.887Z,84.35
2023-05-24T07:15:44.365Z,81.53
2023-05-24T07:18:13.358Z,77.52
2023-05-24T07:20:42.622Z,80.98
2023-05-24T07:23:13.587Z,85.71
2023-05-24T07:25:43.390Z,84.73
2023-05-24T07:28:14.354Z,89.45
2023-05-24T07:30:43.352Z,86.06
2023-05-24T07:33:13.561Z,86.89
2023-05-24T07:35:43.601Z,86.39
2023-05-24T07:38:13.794Z,85.43
2023-05-24T07:40:42.909Z,85.19
2023-05-24T07:43:14.782Z,88.99
2023-05-24T07:45:43.759Z,84.84
2023-05-24T07:48:12.629Z,83.40
2023-05-24T07:50:41.340Z,82.13
2023-05-24T07:53:10.059Z,80.46
2023-05-24T07:55:40.430Z,83.62
2023-05-24T07:58:09.267Z,84.91
2023-05-24T08:00:38.210Z,79.42
2023-05-24T08:03:07.709Z,78.87
2023-05-24T08:05:36.431Z,71.87
2023-05-24T08:08:05.039Z,71.93
2023-05-24T08:10:33.634Z,84.71
2023-05-24T08:13:04.356Z,80.52
2023-05-24T08:15:32.962Z,85.09
2023-05-24T08:18:01.537Z,85.65
2023-05-24T08:20:30.311Z,84.66
2023-05-24T08:22:58.934Z,76.91
2023-05-24T08:25:27.560Z,76.45
2023-05-24T08:27:57.338Z,75.33
2023-05-24T08:30:27.359Z,79.71
2023-05-24T08:32:55.981Z,77.22
2023-05-24T08:35:24.616Z,79.54
2023-05-24T08:37:53.155Z,78.75
2023-05-24T08:40:23.977Z,75.07
2023-05-24T08:42:54.530Z,77.96
2023-05-24T08:45:23.903Z,78.05
2023-05-24T08:47:54.419Z,77.15
2023-05-24T08:50:23.734Z,78.52
2023-05-24T08:52:54.048Z,75.27
2023-05-24T08:55:23.867Z,79.23
2023-05-24T08:57:53.037Z,76.83
2023-05-24T09:00:22.393Z,76.06
2023-05-24T09:02:51.424Z,72.12
2023-05-24T09:05:22.695Z,73.39
2023-05-24T09:07:51.786Z,71.17
2023-05-24T09:10:22.708Z,74.05
2023-05-24T09:12:59.245Z,73.94
2023-05-24T09:15:29.304Z,71.95
2023-05-24T09:17:57.934Z,63.42
2023-05-24T09:20:28.472Z,65.12
2023-05-24T09:22:57.552Z,63.17
2023-05-24T09:25:29.045Z,61.16
2023-05-24T09:27:57.607Z,64.89
2023-05-24T09:30:26.269Z,69.06
2023-05-24T09:32:59.716Z,68.84
2023-05-24T09:35:31.326Z,67.58
2023-05-24T09:38:00.884Z,67.10
2023-05-24T09:40:30.171Z,70.86
2023-05-24T09:43:07.412Z,67.89
2023-05-24T09:45:42.907Z,66.76
2023-05-24T09:48:13.607Z,62.47
2023-05-24T09:50:45.744Z,57.14
2023-05-24T09:53:17.339Z,58.93
2023-05-24T09:55:45.908Z,59.83
2023-05-24T09:58:15.790Z,63.48
2023-05-24T10:00:44.610Z,66.35
2023-05-24T10:03:15.241Z,62.57
2023-05-24T10:05:46.964Z,61.17
2023-05-24T10:08:18.451Z,65.77
2023-05-24T10:10:47.841Z,65.82
2023-05-24T10:13:18.657Z,67.44
2023-05-24T10:15:47.215Z,62.82
2023-05-24T10:18:16.126Z,61.98
2023-05-24T10:20:46.315Z,60.95
2023-05-24T10:23:22.244Z,66.04
2023-05-24T10:25:55.873Z,61.63
2023-05-24T10:28:26.602Z,61.42
2023-05-24T10:31:03.291Z,65.31
2023-05-24T10:33:33.684Z,67.73
2023-05-24T10:36:08.006Z,61.82
2023-05-24T10:38:40.856Z,59.41
2023-05-24T10:41:09.772Z,58.37
2023-05-24T10:43:39.385Z,55.01
2023-05-24T10:46:11.145Z,56.18
2023-05-24T10:48:41.150Z,54.40
2023-05-24T10:51:34.078Z,58.13
2023-05-24T10:54:27.219Z,56.33
2023-05-24T10:56:57.014Z,58.95
2023-05-24T10:59:31.644Z,59.82
2023-05-24T11:02:01.961Z,64.81
2023-05-24T11:04:37.571Z,64.36
2023-05-24T11:07:09.986Z,65.88
2023-05-24T11:09:40.194Z,68.57
2023-05-24T11:12:10.236Z,65.20
2023-05-24T11:14:40.655Z,66.00
2023-05-24T11:17:10.721Z,66.61
2023-05-24T11:19:40.204Z,69.31
2023-05-24T11:22:10.640Z,68.33
2023-05-24T11:24:39.373Z,64.77
2023-05-24T11:27:08.238Z,69.23
2023-05-24T11:29:43.376Z,68.19
2023-05-24T11:32:15.739Z,71.48
2023-05-24T11:34:45.798Z,66.87
2023-05-24T11:37:18.030Z,66.51
2023-05-24T11:39:52.841Z,69.04
2023-05-24T11:42:24.328Z,67.56
2023-05-24T11:44:54.448Z,64.82
2023-05-24T11:47:23.514Z,67.19
2023-05-24T11:49:52.834Z,65.53
2023-05-24T11:52:23.048Z,65.26
2023-05-24T11:54:52.692Z,64.90
2023-05-24T11:57:28.212Z,64.17
2023-05-24T11:59:58.207Z,63.37
2023-05-24T12:02:26.847Z,61.31
2023-05-24T12:04:55.551Z,59.25
2023-05-24T12:07:26.737Z,59.17
2023-05-24T12:09:55.354Z,59.14
2023-05-24T12:12:30.662Z,60.73
2023-05-24T12:15:02.495Z,63.41
2023-05-24T12:17:31.225Z,61.04
2023-05-24T12:20:00.288Z,61.83
2023-05-24T12:22:32.013Z,60.84
2023-05-24T12:25:00.628Z,61.46
2023-05-24T12:27:31.186Z,59.45
2023-05-24T12:30:07.016Z,60.72
2023-05-24T12:32:35.626Z,61.28
2023-05-24T12:35:06.167Z,59.53
2023-05-24T12:37:36.389Z,62.43
2023-05-24T12:40:15.718Z,60.40
2023-05-24T12:42:46.363Z,61.25
2023-05-24T12:45:16.059Z,59.63
2023-05-24T12:47:44.704Z,62.13
2023-05-24T12:50:13.300Z,60.74
2023-05-24T12:52:44.133Z,60.05
2023-05-24T12:55:12.709Z,60.09
2023-05-24T12:57:41.809Z,61.52
2023-05-24T13:00:11.955Z,60.65
2023-05-24T13:02:41.451Z,61.62
2023-05-24T13:05:10.930Z,61.65
2023-05-24T13:07:40.092Z,60.93
2023-05-24T13:10:10.733Z,61.64
2023-05-24T13:12:39.297Z,61.28
2023-05-24T13:15:08.891Z,61.45
2023-05-24T13:17:37.524Z,60.61
2023-05-24T13:20:08.147Z,57.71
2023-05-24T13:22:37.350Z,53.96
2023-05-24T13:25:07.156Z,54.78
2023-05-24T13:27:37.192Z,58.59
2023-05-24T13:30:07.283Z,61.39
2023-05-24T13:32:35.940Z,60.47
2023-05-24T13:35:06.665Z,61.60
2023-05-24T13:37:36.896Z,61.92
2023-05-24T13:40:06.349Z,63.05
2023-05-24T13:42:36.518Z,59.97
2023-05-24T13:45:05.771Z,63.13
2023-05-24T13:47:39.863Z,61.15
2023-05-24T13:50:10.008Z,58.90
2023-05-24T13:52:38.563Z,59.21
2023-05-24T13:55:08.140Z,60.26
2023-05-24T13:57:49.874Z,60.90
2023-05-24T14:00:20.923Z,61.60
2023-05-24T14:02:49.695Z,60.55
2023-05-24T14:05:27.446Z,64.78
2023-05-24T14:08:07.415Z,62.50
2023-05-24T14:10:37.645Z,64.31
2023-05-24T14:13:19.252Z,61.55
2023-05-24T14:15:56.896Z,63.82
2023-05-24T14:18:25.554Z,64.38
2023-05-24T14:20:54.137Z,61.95
2023-05-24T14:23:22.690Z,65.33
2023-05-24T14:25:52.053Z,59.28
2023-05-24T14:28:22.068Z,60.80
2023-05-24T14:30:50.890Z,61.21
2023-05-24T14:33:19.567Z,63.53
2023-05-24T14:35:48.275Z,64.50
2023-05-24T14:38:16.933Z,62.99
2023-05-24T14:40:47.501Z,63.84
2023-05-24T14:43:16.505Z,65.61
2023-05-24T14:45:46.939Z,64.92
2023-05-24T14:48:17.265Z,64.83
2023-05-24T14:50:45.820Z,66.34
2023-05-24T14:53:14.835Z,64.59
2023-05-24T14:55:44.489Z,63.03
2023-05-24T14:58:14.088Z,64.51
2023-05-24T15:00:48.922Z,64.12
2023-05-24T15:03:19.126Z,65.39
2023-05-24T15:05:47.699Z,64.71
2023-05-24T15:08:16.854Z,64.18
2023-05-24T15:10:46.541Z,63.26
2023-05-24T15:13:15.240Z,63.68
2023-05-24T15:15:44.350Z,64.28
2023-05-24T15:18:12.979Z,65.11
2023-05-24T15:20:43.212Z,66.39
2023-05-24T15:23:12.181Z,66.88
2023-05-24T15:25:41.042Z,66.50
2023-05-24T15:28:10.724Z,68.28
2023-05-24T15:30:39.324Z,65.78
2023-05-24T15:33:08.015Z,64.12
2023-05-24T15:35:36.636Z,65.21
2023-05-24T15:38:06.689Z,65.25
2023-05-24T15:40:35.240Z,65.77
2023-05-24T15:43:03.784Z,65.36
2023-05-24T15:45:32.338Z,65.76
2023-05-24T15:48:00.940Z,65.65
2023-05-24T15:50:47.576Z,66.91
2023-05-24T15:53:21.554Z,64.91
2023-05-24T15:55:50.400Z,64.41
2023-05-24T15:58:19.006Z,63.79
2023-05-24T16:00:47.563Z,65.30
2023-05-24T16:03:16.214Z,65.71
2023-05-24T16:05:44.954Z,65.95
2023-05-24T16:08:16.086Z,65.12
2023-05-24T16:10:46.451Z,63.58
2023-05-24T16:13:15.054Z,66.52
2023-05-24T16:15:47.556Z,67.75
2023-05-24T16:18:18.915Z,64.70
2023-05-24T16:20:49.415Z,66.57
2023-05-24T16:23:18.219Z,65.82
2023-05-24T16:25:48.140Z,67.43
2023-05-24T16:28:16.975Z,63.87
2023-05-24T16:30:45.732Z,64.14
2023-05-24T16:33:14.500Z,62.21
2023-05-24T16:35:43.099Z,65.96
2023-05-24T16:38:11.694Z,68.36
2023-05-24T16:40:41.963Z,68.65
2023-05-24T16:43:12.128Z,68.82
2023-05-24T16:45:40.699Z,68.92
2023-05-24T16:48:09.332Z,69.53
2023-05-24T16:50:38.005Z,67.04
2023-05-24T16:53:06.867Z,67.77
2023-05-24T16:55:35.498Z,70.86
2023-05-24T16:58:04.170Z,65.68
2023-05-24T17:00:34.092Z,68.85
2023-05-24T17:03:02.734Z,69.21
2023-05-24T17:05:31.360Z,69.24
2023-05-24T17:07:59.870Z,66.89
2023-05-24T17:10:28.445Z,70.22
2023-05-24T17:12:56.972Z,69.83
2023-05-24T17:15:25.636Z,66.01
2023-05-24T17:17:59.477Z,67.32
2023-05-24T17:20:31.439Z,69.15
2023-05-24T17:23:01.954Z,68.33
2023-05-24T17:25:31.189Z,64.44
2023-05-24T17:28:00.199Z,65.01
2023-05-24T17:30:30.825Z,65.90
2023-05-24T17:33:01.835Z,63.67
2023-05-24T17:35:31.232Z,65.78
2023-05-24T17:38:02.910Z,65.75
2023-05-24T17:40:32.329Z,66.27
2023-05-24T17:43:01.239Z,67.23
2023-05-24T17:45:30.563Z,67.76
2023-05-24T17:48:01.471Z,67.58
2023-05-24T17:50:34.571Z,70.53
2023-05-24T17:53:13.187Z,69.82
2023-05-24T17:55:48.870Z,72.17
2023-05-24T17:58:19.128Z,70.49
2023-05-24T18:00:48.441Z,68.00
2023-05-24T18:03:19.254Z,66.31
2023-05-24T18:08:25.380Z,68.52
2023-05-24T18:10:53.993Z,68.76
2023-05-24T18:13:22.729Z,68.15
2023-05-24T18:15:51.811Z,67.49
2023-05-24T18:18:21.663Z,70.44
2023-05-24T18:20:51.972Z,66.77
2023-05-24T18:23:21.801Z,63.25
2023-05-24T18:25:51.429Z,62.57
2023-05-24T18:28:29.338Z,61.89
2023-05-24T18:30:57.947Z,67.55
2023-05-24T18:33:28.146Z,67.48
2023-05-24T18:35:56.879Z,69.52
2023-05-24T18:38:25.459Z,68.28
2023-05-24T18:40:54.059Z,68.59
2023-05-24T18:43:22.649Z,68.63
2023-05-24T18:45:51.258Z,67.80
2023-05-24T18:48:19.934Z,68.13
2023-05-24T18:50:50.844Z,67.00
2023-05-24T18:53:19.421Z,65.13
2023-05-24T18:55:48.059Z,64.57
2023-05-24T18:58:16.707Z,64.80
2023-05-24T19:00:45.343Z,67.93
2023-05-24T19:03:14.078Z,64.33
2023-05-24T19:05:44.117Z,64.07
2023-05-24T19:08:14.285Z,64.34
2023-05-24T19:10:42.857Z,65.69
2023-05-24T19:13:11.475Z,66.32
2023-05-24T19:15:40.086Z,65.80
2023-05-24T19:18:08.724Z,66.17
2023-05-24T19:20:37.513Z,66.10
2023-05-24T19:23:06.566Z,65.99
2023-05-24T19:25:41.920Z,66.15
2023-05-24T19:28:11.412Z,66.45
2023-05-24T19:30:40.009Z,67.04
2023-05-24T19:33:08.662Z,67.67
2023-05-24T19:35:37.535Z,67.78
2023-05-24T19:38:06.148Z,67.84
2023-05-24T19:40:36.051Z,67.95
2023-05-24T19:43:04.601Z,67.88
2023-05-24T19:45:33.163Z,67.91
2023-05-24T19:48:01.733Z,68.22
2023-05-24T19:50:31.502Z,68.39
2023-05-24T19:53:00.135Z,68.00
2023-05-24T19:55:28.713Z,70.85
2023-05-24T19:57:58.618Z,71.50
2023-05-24T20:00:27.191Z,71.39
2023-05-24T20:02:55.799Z,71.12
2023-05-24T20:05:24.475Z,71.20
2023-05-24T20:07:53.030Z,71.44
2023-05-24T20:10:21.608Z,71.42
2023-05-24T20:12:50.141Z,71.48
2023-05-24T20:15:20.111Z,71.68
2023-05-24T20:17:48.684Z,71.71
2023-05-24T20:20:17.479Z,71.73
2023-05-24T20:22:46.111Z,71.70
2023-05-24T20:25:14.751Z,71.66
2023-05-24T20:27:43.909Z,71.42
2023-05-24T20:30:14.184Z,71.41
2023-05-24T20:32:44.557Z,71.70
2023-05-24T20:35:13.205Z,71.85
2023-05-24T20:37:42.404Z,72.06
2023-05-24T20:40:11.883Z,72.19
2023-05-24T20:42:40.504Z,72.67
2023-05-24T20:45:10.334Z,72.92
2023-05-24T20:47:38.903Z,72.87
2023-05-24T20:50:10.468Z,73.21
2023-05-24T20:52:39.048Z,73.28
2023-05-24T20:55:08.531Z,73.38
2023-05-24T20:57:37.231Z,73.85
2023-05-24T21:00:06.799Z,74.49
2023-05-24T21:02:35.627Z,74.75
2023-05-24T21:05:05.945Z,75.22
2023-05-24T21:07:36.070Z,75.06
2023-05-24T21:10:04.766Z,74.52
2023-05-24T21:12:33.289Z,74.23
2023-05-24T21:15:01.853Z,74.01
2023-05-24T21:17:30.737Z,73.81
2023-05-24T21:19:59.373Z,74.31
2023-05-24T21:22:27.952Z,74.45
2023-05-24T21:24:58.294Z,74.53
2023-05-24T21:27:27.444Z,74.97
2023-05-24T21:29:56.029Z,75.24
2023-05-24T21:32:24.598Z,75.40
2023-05-24T21:34:53.181Z,75.35
2023-05-24T21:37:21.773Z,75.50
2023-05-24T21:39:50.368Z,75.49
2023-05-24T21:42:20.290Z,76.28
2023-05-24T21:44:48.854Z,76.29
2023-05-24T21:47:17.505Z,76.53
2023-05-24T21:49:46.076Z,76.52
2023-05-24T21:52:14.642Z,76.86
2023-05-24T21:54:43.164Z,76.43
2023-05-24T21:57:11.736Z,76.26
2023-05-24T21:59:41.721Z,76.43
2023-05-24T22:02:10.474Z,76.52
2023-05-24T22:04:39.026Z,76.50
2023-05-24T22:07:07.629Z,76.58
2023-05-24T22:09:36.322Z,76.66
2023-05-24T22:12:05.110Z,76.74
2023-05-24T22:14:33.669Z,76.59
2023-05-24T22:17:03.631Z,76.78
2023-05-24T22:19:39.611Z,76.85
2023-05-24T22:22:08.848Z,76.76
2023-05-24T22:24:37.659Z,77.17
2023-05-24T22:27:09.795Z,77.00
2023-05-24T22:29:38.537Z,76.75
2023-05-24T22:32:08.628Z,76.57
2023-05-24T22:34:37.254Z,76.59
2023-05-24T22:37:06.037Z,76.66
2023-05-24T22:39:35.045Z,76.90
2023-05-24T22:42:03.607Z,77.06
2023-05-24T22:44:32.245Z,77.02
2023-05-24T22:47:02.124Z,76.57
2023-05-24T22:49:34.293Z,76.67
2023-05-24T22:52:03.153Z,77.43
2023-05-24T22:54:31.710Z,78.64
2023-05-24T22:57:00.254Z,78.10
2023-05-24T22:59:31.155Z,79.74
2023-05-24T23:02:01.035Z,84.57
2023-05-24T23:04:31.053Z,81.55
2023-05-24T23:06:59.633Z,79.82
2023-05-24T23:09:34.227Z,78.98
2023-05-24T23:12:07.583Z,78.10
2023-05-24T23:14:39.007Z,77.53
2023-05-24T23:17:10.361Z,77.36
2023-05-24T23:19:42.689Z,77.56
2023-05-24T23:22:12.488Z,77.22
2023-05-24T23:24:42.186Z,77.08
2023-05-24T23:27:11.354Z,77.35
2023-05-24T23:29:39.983Z,76.97
2023-05-24T23:32:09.413Z,77.16
2023-05-24T23:34:39.390Z,77.22
2023-05-24T23:37:08.094Z,77.17
2023-05-24T23:39:36.785Z,76.87
2023-05-24T23:42:06.798Z,76.93
2023-05-24T23:44:36.255Z,76.71
2023-05-24T23:47:05.076Z,76.24
2023-05-24T23:49:33.752Z,76.71
2023-05-24T23:52:03.734Z,77.36
2023-05-24T23:54:32.307Z,77.81
2023-05-24T23:57:01.163Z,77.60
2023-05-24T23:59:29.732Z,77.10
